createdAt,value
2023-04-02T00:00:10.918Z,9.38
2023-04-02T00:03:22.194Z,9.45
2023-04-02T00:06:33.002Z,9.34
2023-04-02T00:09:38.832Z,9.27
2023-04-02T00:12:59.917Z,9.16
2023-04-02T00:16:06.681Z,9.16
2023-04-02T00:19:17.320Z,9.14
2023-04-02T00:22:25.258Z,9.16
2023-04-02T00:25:43.003Z,9.19
2023-04-02T00:28:45.646Z,9.13
2023-04-02T00:31:53.872Z,9.07
2023-04-02T00:34:57.728Z,9.08
2023-04-02T00:38:00.367Z,9.42
2023-04-02T00:41:05.387Z,9.57
2023-04-02T00:44:12.753Z,9.70
2023-04-02T00:47:22.789Z,9.74
2023-04-02T00:50:32.815Z,9.67
2023-04-02T00:53:36.076Z,9.75
2023-04-02T00:56:42.720Z,9.76
2023-04-02T00:59:51.717Z,9.81
2023-04-02T01:03:14.082Z,9.84
2023-04-02T01:06:18.884Z,9.87
2023-04-02T01:09:27.268Z,9.83
2023-04-02T01:12:35.542Z,9.78
2023-04-02T01:15:50.827Z,9.82
2023-04-02T01:19:39.256Z,9.79
2023-04-02T01:22:56.691Z,9.79
2023-04-02T01:26:17.714Z,9.80
2023-04-02T01:29:23.833Z,9.83
2023-04-02T01:32:30.272Z,9.86
2023-04-02T01:35:38.912Z,9.89
2023-04-02T01:38:48.589Z,9.87
2023-04-02T01:42:19.475Z,9.83
2023-04-02T01:45:23.683Z,9.78
2023-04-02T01:48:30.227Z,9.79
2023-04-02T01:51:34.762Z,9.78
2023-04-02T01:54:41.854Z,9.77
2023-04-02T01:57:48.909Z,9.72
2023-04-02T02:00:57.925Z,9.74
2023-04-02T02:04:02.533Z,9.79
2023-04-02T02:07:05.553Z,9.72
2023-04-02T02:10:15.749Z,9.68
2023-04-02T02:13:18.464Z,9.68
2023-04-02T02:16:21.741Z,9.66
2023-04-02T02:19:53.331Z,9.66
2023-04-02T02:22:57.738Z,9.70
2023-04-02T02:26:00.536Z,9.68
2023-04-02T02:29:07.742Z,9.68
2023-04-02T02:32:12.279Z,9.71
2023-04-02T02:35:21.884Z,9.76
2023-04-02T02:38:34.700Z,9.74
2023-04-02T02:41:49.843Z,9.72
2023-04-02T02:44:55.911Z,9.73
2023-04-02T02:47:59.724Z,9.70
2023-04-02T02:51:09.358Z,9.72
2023-04-02T02:54:13.797Z,9.69
2023-04-02T02:57:23.228Z,9.70
2023-04-02T03:00:27.562Z,9.68
2023-04-02T03:03:34.471Z,9.72
2023-04-02T03:06:40.909Z,9.64
2023-04-02T03:10:13.851Z,9.64
2023-04-02T03:13:35.714Z,9.59
2023-04-02T03:16:49.186Z,9.67
2023-04-02T03:20:01.732Z,9.62
2023-04-02T03:23:27.338Z,9.69
2023-04-02T03:26:35.835Z,9.61
2023-04-02T03:30:02.900Z,9.57
2023-04-02T03:33:34.711Z,9.49
2023-04-02T03:36:47.780Z,9.47
2023-04-02T03:40:18.664Z,9.48
2023-04-02T03:43:32.274Z,9.42
2023-04-02T03:46:42.306Z,9.33
2023-04-02T03:50:00.503Z,9.31
2023-04-02T03:53:04.993Z,9.25
2023-04-02T03:56:27.473Z,9.16
2023-04-02T03:59:40.098Z,9.17
2023-04-02T04:02:47.773Z,9.17
2023-04-02T04:06:12.140Z,9.16
2023-04-02T04:09:30.428Z,9.09
2023-04-02T04:12:46.451Z,9.12
2023-04-02T04:15:58.008Z,9.15
2023-04-02T04:19:10.913Z,9.12
2023-04-02T04:22:30.408Z,9.13
2023-04-02T04:25:40.298Z,9.07
2023-04-02T04:28:58.542Z,9.16
2023-04-02T04:32:18.131Z,9.08
2023-04-02T04:35:29.582Z,9.02
2023-04-02T04:38:35.650Z,9.01
2023-04-02T04:41:40.422Z,8.98
2023-04-02T04:45:16.662Z,9.00
2023-04-02T04:48:26.886Z,8.96
2023-04-02T04:51:39.510Z,8.97
2023-04-02T04:54:42.829Z,8.98
2023-04-02T04:57:50.827Z,9.01
2023-04-02T05:01:02.162Z,9.11
2023-04-02T05:04:16.833Z,9.02
2023-04-02T05:07:26.482Z,9.08
2023-04-02T05:10:40.670Z,9.07
2023-04-02T05:13:57.295Z,9.15
2023-04-02T05:17:29.715Z,9.16
2023-04-02T05:20:37.793Z,9.19
2023-04-02T05:23:51.719Z,9.22
2023-04-02T05:27:05.481Z,9.30
2023-04-02T05:30:34.393Z,9.42
2023-04-02T05:33:39.442Z,9.59
2023-04-02T05:36:46.791Z,9.64
2023-04-02T05:39:55.036Z,9.73
2023-04-02T05:43:01.319Z,9.90
2023-04-02T05:46:14.131Z,10.05
2023-04-02T05:49:28.329Z,10.10
2023-04-02T05:52:37.081Z,10.16
2023-04-02T05:55:52.146Z,10.25
2023-04-02T05:59:11.862Z,10.30
2023-04-02T06:02:25.192Z,10.32
2023-04-02T06:05:36.678Z,10.41
2023-04-02T06:08:47.622Z,10.48
2023-04-02T06:11:58.462Z,10.50
2023-04-02T06:15:01.326Z,10.56
2023-04-02T06:18:08.969Z,10.68
2023-04-02T06:21:17.572Z,10.66
2023-04-02T06:24:26.178Z,10.80
2023-04-02T06:27:29.421Z,10.85
2023-04-02T06:30:37.039Z,10.89
2023-04-02T06:33:40.782Z,10.98
2023-04-02T06:36:45.518Z,11.03
2023-04-02T06:39:53.198Z,11.13
2023-04-02T06:42:59.885Z,11.24
2023-04-02T06:46:35.986Z,11.34
2023-04-02T06:49:56.858Z,11.45
2023-04-02T06:53:08.427Z,11.71
2023-04-02T06:56:28.791Z,11.93
2023-04-02T06:59:31.782Z,11.99
2023-04-02T07:02:39.930Z,12.13
2023-04-02T07:05:45.913Z,12.26
2023-04-02T07:08:49.349Z,12.46
2023-04-02T07:11:52.887Z,12.68
2023-04-02T07:14:56.358Z,12.95
2023-04-02T07:18:00.318Z,12.95
2023-04-02T07:21:04.053Z,13.10
2023-04-02T07:24:07.122Z,13.23
2023-04-02T07:27:11.521Z,12.95
2023-04-02T07:30:14.259Z,12.94
2023-04-02T07:33:19.034Z,13.04
2023-04-02T07:36:23.816Z,13.13
2023-04-02T07:39:26.443Z,13.24
2023-04-02T07:42:28.998Z,13.19
2023-04-02T07:45:31.580Z,13.13
2023-04-02T07:48:34.178Z,13.30
2023-04-02T07:51:37.604Z,13.23
2023-04-02T07:54:40.495Z,12.99
2023-04-02T07:57:55.112Z,12.70
2023-04-02T08:00:57.894Z,12.63
2023-04-02T08:04:01.414Z,12.67
2023-04-02T08:07:03.929Z,12.65
2023-04-02T08:10:08.012Z,12.68
2023-04-02T08:13:10.691Z,12.63
2023-04-02T08:16:13.290Z,12.80
2023-04-02T08:19:16.210Z,12.79
2023-04-02T08:22:18.719Z,12.86
2023-04-02T08:25:21.168Z,12.71
2023-04-02T08:28:23.747Z,12.74
2023-04-02T08:31:26.356Z,12.92
2023-04-02T08:34:28.994Z,13.22
2023-04-02T08:37:31.650Z,13.60
2023-04-02T08:40:41.198Z,13.87
2023-04-02T08:44:36.752Z,13.97
2023-04-02T08:47:41.248Z,14.31
2023-04-02T08:50:45.903Z,14.91
2023-04-02T08:53:49.394Z,15.35
2023-04-02T08:56:58.362Z,15.66
2023-04-02T09:00:25.742Z,16.23
2023-04-02T09:03:32.247Z,16.28
2023-04-02T09:06:35.174Z,15.80
2023-04-02T09:09:38.895Z,16.19
2023-04-02T09:12:43.764Z,15.37
2023-04-02T09:15:47.520Z,15.17
2023-04-02T09:18:52.767Z,15.18
2023-04-02T09:22:03.840Z,15.36
2023-04-02T09:25:14.359Z,15.76
2023-04-02T09:28:23.695Z,15.53
2023-04-02T09:31:40.283Z,15.60
2023-04-02T09:34:42.934Z,15.83
2023-04-02T09:37:45.984Z,15.27
2023-04-02T09:41:03.665Z,15.36
2023-04-02T09:44:27.187Z,15.37
2023-04-02T09:47:32.249Z,15.28
2023-04-02T09:50:34.967Z,15.59
2023-04-02T09:53:49.494Z,16.05
2023-04-02T09:57:02.240Z,16.24
2023-04-02T10:00:29.916Z,15.61
2023-04-02T10:03:35.117Z,15.98
2023-04-02T10:06:49.730Z,15.41
2023-04-02T10:10:02.852Z,15.93
2023-04-02T10:13:33.848Z,15.53
2023-04-02T10:16:41.611Z,15.22
2023-04-02T10:19:50.300Z,15.73
2023-04-02T10:22:52.870Z,15.55
2023-04-02T10:26:21.379Z,15.56
2023-04-02T10:30:05.557Z,15.48
2023-04-02T10:33:22.688Z,15.32
2023-04-02T10:36:43.267Z,15.28
2023-04-02T10:39:57.656Z,15.58
2023-04-02T10:43:45.713Z,15.67
2023-04-02T10:47:00.454Z,15.84
2023-04-02T10:50:29.587Z,15.60
2023-04-02T10:53:43.563Z,15.65
2023-04-02T10:56:50.997Z,15.71
2023-04-02T11:00:20.626Z,15.64
2023-04-02T11:03:41.677Z,15.64
2023-04-02T11:06:51.811Z,15.57
2023-04-02T11:09:57.517Z,15.93
2023-04-02T11:13:18.291Z,15.86
2023-04-02T11:16:21.782Z,15.68
2023-04-02T11:19:29.737Z,15.80
2023-04-02T11:22:32.329Z,15.98
2023-04-02T11:25:35.161Z,16.00
2023-04-02T11:28:38.071Z,15.81
2023-04-02T11:31:41.429Z,15.90
2023-04-02T11:34:44.152Z,16.34
2023-04-02T11:37:46.887Z,16.57
2023-04-02T11:40:57.180Z,16.35
2023-04-02T11:44:01.407Z,16.45
2023-04-02T11:47:23.513Z,16.45
2023-04-02T11:50:36.962Z,17.14
2023-04-02T11:53:42.853Z,16.96
2023-04-02T11:56:56.755Z,17.19
2023-04-02T12:00:08.770Z,17.71
2023-04-02T12:03:17.746Z,18.14
2023-04-02T12:06:32.535Z,17.21
2023-04-02T12:09:49.650Z,17.40
2023-04-02T12:12:52.248Z,18.15
2023-04-02T12:15:58.141Z,17.52
2023-04-02T12:19:01.324Z,16.65
2023-04-02T12:22:04.537Z,16.41
2023-04-02T12:25:20.113Z,16.96
2023-04-02T12:28:23.251Z,17.70
2023-04-02T12:31:27.247Z,18.36
2023-04-02T12:34:30.616Z,18.78
2023-04-02T12:37:33.080Z,18.63
2023-04-02T12:40:35.877Z,18.29
2023-04-02T12:43:40.105Z,18.58
2023-04-02T12:46:44.136Z,19.11
2023-04-02T12:49:47.457Z,19.05
2023-04-02T12:52:53.402Z,19.31
2023-04-02T12:55:56.452Z,19.61
2023-04-02T12:59:01.032Z,19.72
2023-04-02T13:02:18.617Z,19.88
2023-04-02T13:05:36.137Z,20.39
2023-04-02T13:08:42.799Z,20.51
2023-04-02T13:11:45.674Z,21.00
2023-04-02T13:14:56.114Z,19.79
2023-04-02T13:18:22.980Z,19.44
2023-04-02T13:21:30.016Z,19.58
2023-04-02T13:24:33.521Z,20.46
2023-04-02T13:27:36.074Z,20.14
2023-04-02T13:30:38.735Z,20.54
2023-04-02T13:33:41.488Z,20.94
2023-04-02T13:36:44.825Z,21.28
2023-04-02T13:39:48.236Z,20.06
2023-04-02T13:42:51.374Z,20.05
2023-04-02T13:45:58.381Z,20.56
2023-04-02T13:49:01.438Z,21.41
2023-04-02T13:52:05.310Z,22.67
2023-04-02T13:55:10.408Z,21.33
2023-04-02T13:58:14.071Z,20.97
2023-04-02T14:01:18.368Z,21.26
2023-04-02T14:04:27.590Z,20.36
2023-04-02T14:07:57.566Z,19.25
2023-04-02T14:11:01.033Z,20.56
2023-04-02T14:14:24.761Z,22.26
2023-04-02T14:17:43.606Z,21.13
2023-04-02T14:20:49.745Z,19.23
2023-04-02T14:24:01.192Z,18.22
2023-04-02T14:27:28.494Z,17.38
2023-04-02T14:30:58.819Z,16.79
2023-04-02T14:34:17.143Z,16.79
2023-04-02T14:37:27.216Z,18.56
2023-04-02T14:40:39.014Z,20.29
2023-04-02T14:44:03.193Z,19.76
2023-04-02T14:47:19.105Z,17.74
2023-04-02T14:50:29.660Z,16.77
2023-04-02T14:53:58.537Z,15.47
2023-04-02T14:57:23.107Z,15.17
2023-04-02T15:00:38.199Z,14.54
2023-04-02T15:03:53.950Z,13.93
2023-04-02T15:07:05.492Z,13.77
2023-04-02T15:10:28.876Z,13.41
2023-04-02T15:13:38.423Z,13.07
2023-04-02T15:16:41.650Z,12.92
2023-04-02T15:19:44.546Z,12.95
2023-04-02T15:23:22.245Z,13.03
2023-04-02T15:26:41.626Z,13.07
2023-04-02T15:29:59.745Z,13.04
2023-04-02T15:33:20.848Z,12.99
2023-04-02T15:36:35.440Z,12.93
2023-04-02T15:39:59.121Z,13.03
2023-04-02T15:43:23.502Z,13.00
2023-04-02T15:46:41.386Z,13.02
2023-04-02T15:50:02.014Z,13.13
2023-04-02T15:53:10.636Z,13.37
2023-04-02T15:56:28.101Z,13.56
2023-04-02T15:59:44.187Z,13.97
2023-04-02T16:03:06.198Z,16.24
2023-04-02T16:06:29.009Z,17.21
2023-04-02T16:09:47.891Z,17.72
2023-04-02T16:12:53.085Z,18.19
2023-04-02T16:16:01.156Z,18.24
2023-04-02T16:19:27.574Z,18.58
2023-04-02T16:22:33.833Z,18.57
2023-04-02T16:25:57.416Z,17.89
2023-04-02T16:29:24.217Z,17.40
2023-04-02T16:32:39.340Z,16.85
2023-04-02T16:36:02.820Z,16.18
2023-04-02T16:39:16.722Z,15.86
2023-04-02T16:42:57.160Z,15.47
2023-04-02T16:49:43.576Z,14.53
2023-04-02T16:52:57.112Z,14.06
2023-04-02T16:56:26.572Z,13.53
2023-04-02T16:59:45.713Z,13.18
2023-04-02T17:03:06.457Z,12.91
2023-04-02T17:06:20.078Z,12.69
2023-04-02T17:09:40.434Z,12.52
2023-04-02T17:12:51.934Z,12.44
2023-04-02T17:16:14.178Z,12.25
2023-04-02T17:19:19.408Z,12.07
2023-04-02T17:22:23.519Z,12.01
2023-04-02T17:25:31.637Z,11.96
2023-04-02T17:28:38.454Z,11.80
2023-04-02T17:31:43.796Z,11.74
2023-04-02T17:34:46.719Z,11.57
2023-04-02T17:37:57.146Z,11.45
2023-04-02T17:41:08.117Z,11.43
2023-04-02T17:44:24.249Z,11.33
2023-04-02T17:47:59.253Z,11.17
2023-04-02T17:51:30.387Z,11.03
2023-04-02T17:55:00.909Z,10.98
2023-04-02T17:58:22.537Z,10.99
2023-04-02T18:01:34.151Z,10.90
2023-04-02T18:05:16.377Z,11.08
2023-04-02T18:08:33.254Z,11.06
2023-04-02T18:12:06.889Z,11.16
2023-04-02T18:15:24.652Z,11.08
2023-04-02T18:19:03.639Z,11.05
2023-04-02T18:22:26.743Z,10.90
2023-04-02T18:25:45.952Z,10.87
2023-04-02T18:29:00.510Z,10.77
2023-04-02T18:32:12.010Z,10.78
2023-04-02T18:35:34.748Z,10.70
2023-04-02T18:38:47.481Z,10.66
2023-04-02T18:42:02.547Z,10.55
2023-04-02T18:45:25.084Z,10.54
2023-04-02T18:48:46.616Z,10.49
2023-04-02T18:51:55.100Z,10.50
2023-04-02T18:55:15.352Z,10.56
2023-04-02T18:58:27.076Z,10.54
2023-04-02T19:01:39.237Z,10.43
2023-04-02T19:04:47.781Z,10.44
2023-04-02T19:07:55.433Z,10.54
2023-04-02T19:11:01.915Z,10.57
2023-04-02T19:14:12.416Z,10.60
2023-04-02T19:17:37.169Z,10.69
2023-04-02T19:21:21.583Z,10.75
2023-04-02T19:24:33.827Z,10.81
2023-04-02T19:27:59.649Z,10.74
2023-04-02T19:31:11.856Z,10.79
2023-04-02T19:34:22.633Z,10.78
2023-04-02T19:37:36.494Z,10.78
2023-04-02T19:40:53.689Z,10.73
2023-04-02T19:43:57.004Z,10.69
2023-04-02T19:47:00.027Z,10.47
2023-04-02T19:50:04.122Z,10.55
2023-04-02T19:53:07.618Z,10.57
2023-04-02T19:56:11.632Z,10.53
2023-04-02T19:59:17.981Z,10.51
2023-04-02T20:02:21.790Z,10.49
2023-04-02T20:05:24.745Z,10.39
2023-04-02T20:08:28.680Z,10.41
2023-04-02T20:11:31.500Z,10.37
2023-04-02T20:14:34.208Z,10.28
2023-04-02T20:17:37.507Z,10.27
2023-04-02T20:20:40.502Z,10.28
2023-04-02T20:23:43.198Z,10.28
2023-04-02T20:26:47.886Z,10.24
2023-04-02T20:29:50.718Z,10.25
2023-04-02T20:32:55.370Z,10.23
2023-04-02T20:36:06.397Z,10.22
2023-04-02T20:39:10.805Z,10.21
2023-04-02T20:42:14.299Z,10.16
2023-04-02T20:45:17.204Z,10.07
2023-04-02T20:48:19.869Z,10.07
2023-04-02T20:51:22.451Z,9.97
2023-04-02T20:54:44.804Z,9.93
2023-04-02T20:57:47.598Z,9.72
2023-04-02T21:00:50.611Z,9.55
2023-04-02T21:03:58.287Z,9.40
2023-04-02T21:07:00.922Z,9.32
2023-04-02T21:10:04.229Z,9.29
2023-04-02T21:13:07.586Z,9.30
2023-04-02T21:16:14.949Z,9.21
2023-04-02T21:19:17.465Z,9.21
2023-04-02T21:22:20.088Z,9.16
2023-04-02T21:25:22.870Z,9.12
2023-04-02T21:28:26.356Z,9.10
2023-04-02T21:31:33.439Z,9.15
2023-04-02T21:34:35.963Z,9.15
2023-04-02T21:37:38.408Z,9.12
2023-04-02T21:40:41.422Z,9.10
2023-04-02T21:43:46.140Z,9.11
2023-04-02T21:46:49.864Z,9.05
2023-04-02T21:49:54.214Z,9.02
2023-04-02T21:52:56.806Z,9.06
2023-04-02T21:56:05.048Z,9.01
2023-04-02T21:59:09.521Z,9.09
2023-04-02T22:02:12.236Z,9.03
2023-04-02T22:05:14.762Z,9.06
2023-04-02T22:08:17.305Z,8.98
2023-04-02T22:11:22.889Z,8.90
2023-04-02T22:14:25.725Z,8.85
2023-04-02T22:17:28.380Z,8.76
2023-04-02T22:20:31.236Z,8.75
2023-04-02T22:23:34.886Z,8.58
2023-04-02T22:26:38.283Z,8.41
2023-04-02T22:29:41.172Z,8.42
2023-04-02T22:32:45.293Z,8.38
2023-04-02T22:35:52.237Z,8.38
2023-04-02T22:38:55.386Z,8.36
2023-04-02T22:41:57.830Z,8.37
2023-04-02T22:45:01.344Z,8.38
2023-04-02T22:48:04.479Z,8.31
2023-04-02T22:51:08.656Z,8.28
2023-04-02T22:54:11.324Z,8.29
2023-04-02T22:57:13.812Z,8.25
2023-04-02T23:00:17.579Z,8.18
2023-04-02T23:03:20.184Z,8.18
2023-04-02T23:06:23.713Z,8.11
2023-04-02T23:09:26.545Z,8.08
2023-04-02T23:12:29.693Z,8.01
2023-04-02T23:15:32.242Z,7.80
2023-04-02T23:18:35.759Z,7.89
2023-04-02T23:21:38.249Z,7.79
2023-04-02T23:24:40.930Z,7.85
2023-04-02T23:27:43.374Z,7.70
2023-04-02T23:30:45.823Z,7.78
2023-04-02T23:33:48.740Z,7.67
2023-04-02T23:36:51.343Z,7.59
2023-04-02T23:39:53.900Z,7.69
2023-04-02T23:42:56.467Z,7.67
2023-04-02T23:45:59.346Z,7.71
2023-04-02T23:49:03.627Z,7.67
2023-04-02T23:52:06.201Z,7.68
2023-04-02T23:55:09.181Z,7.59
2023-04-02T23:58:11.731Z,7.68
